»·PEaware :: DAL343 KPDX-KBOI

DAL343 :: KPDX-KBOI

FLIGHT INFORMATION

Flight Status: Arrived
Operator:
Delta Air Lines
More flights by this operator :: More flights under this callsign
Pilot: James W. (12414)
Aircraft: Unknown
(B38M)
More flights by this aircraft type
Origin: KPDX Portland Intl
United States
Destination: KBOI Boise Air Terminal/Gowen
United States
More flights between these airports :: More routes between these airports
Route: +PTLD1 TIMEE J15 IMB DCT DEVLE KYAAN3
File this flight plan on PilotEdge
Remarks:
Altitude:
(Current/Filed)
31,000ft
Speed:
(Current/Filed)
450kts
Departed: 23-Nov-20 06:30 PM
Arrived: 23-Nov-20 07:19 PM
Distance/Time
Traveled:
298nm/0:49
Distance/Time
To Go:
Arrived

Flight Plot

Page will automatically refresh every two minutes.

Flight plan parsing failed; only flown route is shown


Map Options




Map Legend


Flown Route
Filed Route
Departure Airport
Arrival Airport
Navaid (VOR, NDB)
Fix

Horizontal Profiles

Position Reports

Time Latitude Longitude Heading Altitude Ground
Speed
23-Nov-20 18:09 45.591150 -122.594070 208 36ft 0kts
23-Nov-20 18:10 45.591150 -122.594070 208 36ft 0kts
23-Nov-20 18:11 45.591150 -122.594070 208 36ft 0kts
23-Nov-20 18:12 45.591150 -122.594070 208 36ft 0kts
23-Nov-20 18:13 45.591150 -122.594070 208 36ft 0kts
23-Nov-20 18:14 45.591150 -122.594070 208 36ft 0kts
23-Nov-20 18:15 45.591150 -122.594070 208 36ft 0kts
23-Nov-20 18:16 45.591150 -122.594070 208 36ft 0kts
23-Nov-20 18:17 45.591150 -122.594070 208 36ft 0kts
23-Nov-20 18:18 45.591150 -122.594070 208 36ft 0kts
23-Nov-20 18:19 45.591409 -122.593802 258 36ft 2kts
23-Nov-20 18:20 45.591385 -122.593604 301 36ft 0kts
23-Nov-20 18:21 45.591385 -122.593604 301 36ft 0kts
23-Nov-20 18:22 45.591385 -122.593604 300 36ft 0kts
23-Nov-20 18:23 45.591385 -122.593604 300 36ft 0kts
23-Nov-20 18:24 45.591385 -122.593604 300 36ft 0kts
23-Nov-20 18:25 45.591385 -122.593604 300 36ft 0kts
23-Nov-20 18:26 45.593753 -122.598290 298 36ft 28kts
23-Nov-20 18:27 45.595753 -122.600668 69 36ft 0kts
23-Nov-20 18:28 45.594900 -122.595860 119 36ft 39kts
23-Nov-20 18:29 45.575877 -122.538542 102 1333ft 241kts
23-Nov-20 18:30 45.563700 -122.435825 99 3460ft 271kts
23-Nov-20 18:31 45.545357 -122.329453 134 6567ft 286kts
23-Nov-20 18:32 45.486165 -122.244976 137 9922ft 319kts
23-Nov-20 18:33 45.419125 -122.151810 134 12481ft 370kts
23-Nov-20 18:34 45.338116 -122.039649 134 14468ft 430kts
23-Nov-20 18:35 45.250387 -121.918882 134 17477ft 449kts
23-Nov-20 18:36 45.158323 -121.792778 134 20236ft 468kts
23-Nov-20 18:37 45.062770 -121.662452 123 22691ft 485kts
23-Nov-20 18:38 45.018221 -121.485140 99 24932ft 491kts
23-Nov-20 18:39 44.987795 -121.293972 85 26559ft 509kts
23-Nov-20 18:40 44.967049 -121.094270 110 29063ft 529kts
23-Nov-20 18:41 44.917270 -120.902204 101 31150ft 517kts
23-Nov-20 18:42 44.874783 -120.709955 100 31133ft 512kts
23-Nov-20 18:43 44.832045 -120.518058 100 31118ft 512kts
23-Nov-20 18:44 44.789009 -120.326567 101 31104ft 513kts
23-Nov-20 18:45 44.745535 -120.134429 101 31108ft 513kts
23-Nov-20 18:47 44.701809 -119.942970 101 31115ft 513kts
23-Nov-20 18:48 44.657661 -119.751497 101 31116ft 512kts
23-Nov-20 18:49 44.622207 -119.558800 96 31119ft 508kts
23-Nov-20 18:50 44.589927 -119.365051 96 31120ft 508kts
23-Nov-20 18:51 44.557300 -119.171637 96 31117ft 509kts
23-Nov-20 18:52 44.524271 -118.978388 96 31118ft 509kts
23-Nov-20 18:53 44.490806 -118.785046 94 30651ft 503kts
23-Nov-20 18:54 44.458512 -118.601690 94 29042ft 470kts
23-Nov-20 18:55 44.428010 -118.429820 94 27447ft 441kts
23-Nov-20 18:56 44.402271 -118.285553 96 26030ft 421kts
23-Nov-20 18:57 44.373630 -118.125746 96 24307ft 408kts
23-Nov-20 18:58 44.346219 -117.974209 97 22520ft 398kts
23-Nov-20 18:59 44.319035 -117.825287 99 20728ft 390kts
23-Nov-20 19:00 44.292254 -117.679827 100 18943ft 382kts
23-Nov-20 19:01 44.265948 -117.538098 100 17166ft 373kts
23-Nov-20 19:02 44.239984 -117.399318 101 15517ft 360kts
23-Nov-20 19:02 44.218949 -117.288487 106 14267ft 348kts
23-Nov-20 19:04 44.150732 -117.169310 137 12541ft 335kts
23-Nov-20 19:04 44.094878 -117.096121 137 11288ft 326kts
23-Nov-20 19:06 44.018821 -116.996835 136 9538ft 316kts
23-Nov-20 19:06 43.966219 -116.927389 129 8289ft 310kts
23-Nov-20 19:07 43.920335 -116.832779 123 8017ft 287kts
23-Nov-20 19:08 43.877795 -116.744905 122 8001ft 251kts
23-Nov-20 19:09 43.840003 -116.667027 124 8012ft 242kts
23-Nov-20 19:10 43.792189 -116.604172 143 7192ft 225kts
23-Nov-20 19:11 43.744840 -116.554148 143 5875ft 205kts
23-Nov-20 19:12 43.700800 -116.507595 142 5024ft 195kts
23-Nov-20 19:13 43.657566 -116.461933 142 5024ft 195kts
23-Nov-20 19:14 43.623825 -116.404641 117 5043ft 195kts
23-Nov-20 19:15 43.603691 -116.343749 113 4415ft 163kts
23-Nov-20 19:16 43.585254 -116.286864 115 3634ft 161kts
23-Nov-20 19:17 43.566540 -116.232432 113 2879ft 136kts
23-Nov-20 19:18 43.562267 -116.216941 2 2878ft 0kts

Navigation Log

Ident Type
Flight plan parsing failed, navigation log unavailable